Airfield :
LOGIN :

Register | Disclaimer

   EN    FR    IT 

 










Legend :    VFR   Marginal VFR   IFR   Intensive IFR   Very Intensive IFR
Visi :
Ceiling :
>= 8 km
>= 3000ft
5 to 8 km
1000 to 3000 ft
1500m to 5 km
500 to 1000 ft
800 to 1500m
200 to 500 ft
< 800m
< 200 ft
Symbols :   Thunderstorms  Fog  Heavy snow  Heavy precipitations  Wind > 20 kt
SIGMETs :     Misc.  Thunderstorms  Icing  Turbulence  Mountain Waves  Volcanic Ashes






- Airport Elevation : 392 ft
- IATA code : CDG


LFPG - Paris-Aeroport Charles De Gaulle

CURRENT METAR :
  • 280730Z 24014KT 8000 -RA BKN009 BKN018 11/10 Q1005 TEMPO 4000 RA BKN004

EXPIRED METARs :
  • 280700Z 23013KT 4000 -RADZ BKN006 BKN014 11/10 Q1005 TEMPO 4000 RA BKN004
  • 280630Z 22011KT 8000 -RA BKN007 BKN013 11/10 Q1006 TEMPO 4000 RA BKN004
  • 280600Z 21011KT 8000 -RA OVC007 11/10 Q1006 NOSIG
  • 280530Z 22012KT 8000 -RA OVC007 FEW013TCU 10/10 Q1006 NOSIG
  • 280500Z 23013KT 5000 -RA FEW006TCU OVC006 10/10 Q1007 NOSIG

TAF TAF LFPG
Valid from the 28 at 06:00 until the 29 at 12:00 UTC


280500Z 2806/2912 23015G25KT 9999 BKN009 TX13/2815Z TN08/2907Z
PROB40
TEMPO 2806/2808 4000 RA BKN004 BKN005TCU
TEMPO 2811/2817 BKN012
BECMG 2817/2819 23010KT
PROB40
TEMPO 2900/2903 3500 RA BKN004
BECMG 2900/2902 25015G30KT
BECMG 2903/2905 SCT025
ATIS : +33 1 48 62 10 92



MET'MAP, your aeronautical weather chart ! - Copyright ORBIFLY December 2007 - Disclaimer

ORBIFLY MET'MAP TEAM :

Programming & Development : Alexandra Zaïnal
Concept & original design : Baudouin d'Aumeries
Assistance for programming : Marc-Olivier Méhu
Technical & hardware support : Manuel Goepfert

Contact : metmap@orbifly.com




SOURCES & CREDITS :

   NOAA